EKSB/SGD METAR and TAF weather

Enter ICAO airport designator
Station Type Date Time Source
EKSB METAR 2019/06/19 03:20 UTC NOAA

EKSB 190320Z AUTO 00000KT 5000NDV BCFG FEW180/// 16/15 Q1010


Station Type Date Time Source
EKSB Decoded METAR 2019/06/19 03:20 UTC NOAA

Soenderborg Lufthavn, Denmark (EKSB) 54-58N 009-47E 14M
Jun 18, 2019 - 11:20 PM EDT / 2019.06.19 0320 UTC
Wind: Calm:0
Sky conditions: mostly clear
Weather: patches of fog
Temperature: 60 F (16 C)
Dew Point: 59 F (15 C)
Relative Humidity: 93%
Pressure (altimeter): 29.83 in. Hg (1010 hPa)
ob: EKSB 190320Z AUTO 00000KT 5000NDV BCFG FEW180/// 16/15 Q1010
cycle: 3

Station Type Date Time Source
EKSB TAF 2016/01/27 09:03 UTC NOAA

TAF TAF EKSB 270856Z 2709/2721 23022KT 5000 -RA BR BKN008
TEMPO 2709/2721 24025G40KT 2000 RADZ BKN004

Example: see airport list